createdAt,value
2024-02-13T00:00:04.843Z,100696.31
2024-02-13T00:03:32.572Z,100697.38
2024-02-13T00:06:56.395Z,100699.44
2024-02-13T00:10:19.338Z,100701.69
2024-02-13T00:13:40.943Z,100713.19
2024-02-13T00:17:02.607Z,100711.88
2024-02-13T00:20:24.001Z,100714.88
2024-02-13T00:23:45.872Z,100721.56
2024-02-13T00:27:09.019Z,100729.47
2024-02-13T00:30:32.583Z,100728.53
2024-02-13T00:33:56.373Z,100734.75
2024-02-13T00:37:18.226Z,100743.41
2024-02-13T00:40:40.063Z,100747.38
2024-02-13T00:44:03.101Z,100752.84
2024-02-13T00:47:25.266Z,100761.88
2024-02-13T00:50:48.118Z,100768.03
2024-02-13T00:54:14.928Z,100772.72
2024-02-13T00:57:36.569Z,100769.59
2024-02-13T01:00:59.761Z,100774.19
2024-02-13T01:04:22.438Z,100780.41
2024-02-13T01:07:44.208Z,100784.47
2024-02-13T01:11:05.750Z,100783.59
2024-02-13T01:14:27.434Z,100797.97
2024-02-13T01:17:50.658Z,100800.41
2024-02-13T01:21:15.477Z,100800.03
2024-02-13T01:24:37.374Z,100805.13
2024-02-13T01:27:58.699Z,100809.00
2024-02-13T01:31:19.977Z,100816.13
2024-02-13T01:34:43.529Z,100809.16
2024-02-13T01:38:10.939Z,100819.84
2024-02-13T01:41:32.606Z,100814.56
2024-02-13T01:44:54.924Z,100823.09
2024-02-13T01:48:19.150Z,100820.78
2024-02-13T01:51:42.821Z,100825.81
2024-02-13T01:55:05.117Z,100835.50
2024-02-13T01:58:27.422Z,100835.75
2024-02-13T02:01:49.621Z,100844.78
2024-02-13T02:05:12.670Z,100837.13
2024-02-13T02:08:36.146Z,100839.84
2024-02-13T02:11:58.389Z,100847.16
2024-02-13T02:15:19.997Z,100854.47
2024-02-13T02:18:42.307Z,100853.97
2024-02-13T02:22:04.671Z,100858.03
2024-02-13T02:25:27.530Z,100860.94
2024-02-13T02:28:48.847Z,100873.19
2024-02-13T02:32:10.510Z,100872.59
2024-02-13T02:35:32.289Z,100877.88
2024-02-13T02:38:55.078Z,100880.50
2024-02-13T02:42:18.181Z,100883.03
2024-02-13T02:45:40.126Z,100887.38
2024-02-13T02:49:01.608Z,100896.97
2024-02-13T02:52:23.013Z,100905.81
2024-02-13T02:55:44.425Z,100912.63
2024-02-13T02:59:07.265Z,100916.63
2024-02-13T03:02:28.609Z,100924.34
2024-02-13T03:05:51.706Z,100935.75
2024-02-13T03:09:13.657Z,100930.50
2024-02-13T03:12:36.573Z,100935.53
2024-02-13T03:15:59.738Z,100944.94
2024-02-13T03:19:21.382Z,100949.00
2024-02-13T03:22:43.300Z,100960.78
2024-02-13T03:26:06.032Z,100958.22
2024-02-13T03:29:28.231Z,100952.94
2024-02-13T03:32:51.136Z,100957.28
2024-02-13T03:36:17.890Z,100964.34
2024-02-13T03:39:39.802Z,100974.88
2024-02-13T03:43:01.398Z,100988.41
2024-02-13T03:46:22.842Z,100990.88
2024-02-13T03:49:45.676Z,101000.56
2024-02-13T03:53:07.537Z,101000.50
2024-02-13T03:56:28.996Z,101015.69
2024-02-13T03:59:50.365Z,101025.44
2024-02-13T04:03:12.555Z,101034.06
2024-02-13T04:06:36.415Z,101045.72
2024-02-13T04:09:58.092Z,101048.94
2024-02-13T04:13:19.394Z,101046.47
2024-02-13T04:16:40.942Z,101058.78
2024-02-13T04:20:04.397Z,101057.34
2024-02-13T04:23:28.482Z,101061.44
2024-02-13T04:26:51.673Z,101063.47
2024-02-13T04:30:14.131Z,101066.88
2024-02-13T04:33:35.563Z,101071.97
2024-02-13T04:36:57.280Z,101076.31
2024-02-13T04:40:20.568Z,101080.50
2024-02-13T04:43:44.469Z,101091.22
2024-02-13T04:47:06.713Z,101090.34
2024-02-13T04:50:29.130Z,101082.22
2024-02-13T04:53:51.006Z,101092.06
2024-02-13T04:57:14.237Z,101096.34
2024-02-13T05:00:38.276Z,101094.31
2024-02-13T05:04:22.790Z,101100.41
2024-02-13T05:07:46.064Z,101105.63
2024-02-13T05:11:08.241Z,101109.75
2024-02-13T05:14:31.876Z,101111.06
2024-02-13T05:17:53.572Z,101099.69
2024-02-13T05:21:16.880Z,101113.81
2024-02-13T05:24:40.286Z,101114.19
2024-02-13T05:28:01.810Z,101124.66
2024-02-13T05:31:24.524Z,101120.94
2024-02-13T05:34:45.997Z,101129.63
2024-02-13T05:38:07.992Z,101130.44
2024-02-13T05:41:29.341Z,101140.84
2024-02-13T05:44:51.470Z,101140.84
2024-02-13T05:48:15.011Z,101144.25
2024-02-13T05:51:36.665Z,101155.19
2024-02-13T05:54:59.379Z,101149.38
2024-02-13T05:58:21.880Z,101154.88
2024-02-13T06:01:43.819Z,101161.22
2024-02-13T06:05:08.021Z,101166.50
2024-02-13T06:08:29.641Z,101172.94
2024-02-13T06:11:51.461Z,101175.75
2024-02-13T06:15:13.483Z,101179.38
2024-02-13T06:18:35.001Z,101186.34
2024-02-13T06:21:58.027Z,101183.41
2024-02-13T06:25:19.456Z,101186.41
2024-02-13T06:28:41.392Z,101193.88
2024-02-13T06:32:03.275Z,101196.03
2024-02-13T06:35:24.829Z,101200.44
2024-02-13T06:38:47.526Z,101209.28
2024-02-13T06:42:09.478Z,101206.59
2024-02-13T06:45:31.906Z,101209.00
2024-02-13T06:48:55.075Z,101209.97
2024-02-13T06:52:16.520Z,101201.31
2024-02-13T06:55:39.145Z,101206.25
2024-02-13T06:59:00.414Z,101217.75
2024-02-13T07:02:21.719Z,101222.69
2024-02-13T07:05:43.072Z,101218.75
2024-02-13T07:09:06.521Z,101236.03
2024-02-13T07:12:30.166Z,101240.84
2024-02-13T07:15:51.741Z,101245.28
2024-02-13T07:19:13.662Z,101249.38
2024-02-13T07:22:35.175Z,101253.59
2024-02-13T07:25:56.381Z,101264.81
2024-02-13T07:29:20.255Z,101264.19
2024-02-13T07:32:41.996Z,101267.28
2024-02-13T07:36:03.819Z,101272.50
2024-02-13T07:39:25.555Z,101279.78
2024-02-13T07:42:46.925Z,101283.06
2024-02-13T07:46:10.852Z,101275.75
2024-02-13T07:49:33.591Z,101288.38
2024-02-13T07:52:55.626Z,101279.75
2024-02-13T07:56:19.829Z,101291.44
2024-02-13T07:59:41.571Z,101289.56
2024-02-13T08:03:05.009Z,101289.41
2024-02-13T08:06:26.652Z,101292.81
2024-02-13T08:09:48.567Z,101300.19
2024-02-13T08:13:10.722Z,101292.75
2024-02-13T08:16:32.198Z,101307.09
2024-02-13T08:19:55.365Z,101301.91
2024-02-13T08:23:17.000Z,101307.41
2024-02-13T08:26:39.158Z,101306.69
2024-02-13T08:30:00.912Z,101294.03
2024-02-13T08:33:22.820Z,101293.19
2024-02-13T08:36:46.413Z,101306.16
2024-02-13T08:40:08.951Z,101307.78
2024-02-13T08:43:30.249Z,101310.72
2024-02-13T08:46:51.614Z,101309.22
2024-02-13T08:50:14.209Z,101316.38
2024-02-13T08:53:37.277Z,101319.03
2024-02-13T08:56:59.145Z,101329.34
2024-02-13T09:00:21.664Z,101330.97
2024-02-13T09:03:43.736Z,101333.31
2024-02-13T09:07:05.747Z,101340.91
2024-02-13T09:10:28.651Z,101334.03
2024-02-13T09:13:50.171Z,101331.22
2024-02-13T09:17:11.953Z,101332.69
2024-02-13T09:20:33.719Z,101345.69
2024-02-13T09:23:55.658Z,101340.34
2024-02-13T09:27:19.629Z,101346.28
2024-02-13T09:30:41.196Z,101347.06
2024-02-13T09:34:03.149Z,101342.72
2024-02-13T09:37:26.606Z,101350.06
2024-02-13T09:40:48.967Z,101355.75
2024-02-13T09:44:13.992Z,101360.88
2024-02-13T09:47:35.966Z,101362.72
2024-02-13T09:50:59.534Z,101369.00
2024-02-13T09:54:22.711Z,101379.72
2024-02-13T09:57:44.175Z,101368.78
2024-02-13T10:01:08.825Z,101366.91
2024-02-13T10:04:31.073Z,101372.56
2024-02-13T10:07:52.808Z,101377.72
2024-02-13T10:11:16.658Z,101381.91
2024-02-13T10:14:38.335Z,101385.16
2024-02-13T10:18:02.343Z,101388.56
2024-02-13T10:21:27.677Z,101383.91
2024-02-13T10:24:55.520Z,101394.16
2024-02-13T10:28:20.614Z,101397.97
2024-02-13T10:31:43.829Z,101386.13
2024-02-13T10:35:10.790Z,101397.06
2024-02-13T10:38:34.744Z,101397.59
2024-02-13T10:41:59.424Z,101397.25
2024-02-13T10:45:24.303Z,101405.59
2024-02-13T10:48:53.207Z,101407.53
2024-02-13T10:52:16.482Z,101397.31
2024-02-13T10:55:41.995Z,101402.19
2024-02-13T10:59:05.102Z,101405.91
2024-02-13T11:02:27.906Z,101405.19
2024-02-13T11:05:49.635Z,101419.31
2024-02-13T11:09:14.377Z,101414.25
2024-02-13T11:12:37.212Z,101420.38
2024-02-13T11:15:59.197Z,101416.50
2024-02-13T11:19:22.083Z,101416.97
2024-02-13T11:22:52.505Z,101414.66
2024-02-13T11:26:20.201Z,101413.47
2024-02-13T11:29:42.593Z,101420.59
2024-02-13T11:33:07.435Z,101418.41
2024-02-13T11:36:30.838Z,101417.78
2024-02-13T11:39:53.021Z,101419.28
2024-02-13T11:43:25.290Z,101425.97
2024-02-13T11:46:53.574Z,101431.00
2024-02-13T11:50:15.580Z,101417.66
2024-02-13T11:53:37.138Z,101428.44
2024-02-13T11:56:58.492Z,101429.56
2024-02-13T12:00:22.840Z,101435.53
2024-02-13T12:03:44.550Z,101431.78
2024-02-13T12:07:07.394Z,101421.06
2024-02-13T12:10:29.340Z,101422.69
2024-02-13T12:13:51.867Z,101430.00
2024-02-13T12:17:15.439Z,101427.94
2024-02-13T12:20:37.086Z,101428.69
2024-02-13T12:24:02.590Z,101427.63
2024-02-13T12:27:25.584Z,101427.81
2024-02-13T12:30:48.756Z,101428.50
2024-02-13T12:34:11.929Z,101430.41
2024-02-13T12:37:33.301Z,101427.06
2024-02-13T12:40:56.644Z,101436.28
2024-02-13T12:44:18.515Z,101441.69
2024-02-13T12:47:40.688Z,101439.88
2024-02-13T12:51:05.638Z,101422.69
2024-02-13T12:54:28.905Z,101433.09
2024-02-13T12:57:51.436Z,101432.03
2024-02-13T13:01:13.059Z,101433.53
2024-02-13T13:04:34.717Z,101433.16
2024-02-13T13:08:00.569Z,101438.28
2024-02-13T13:11:23.634Z,101440.94
2024-02-13T13:14:47.969Z,101441.13
2024-02-13T13:18:15.815Z,101434.78
2024-02-13T13:21:41.141Z,101436.56
2024-02-13T13:25:10.819Z,101431.09
2024-02-13T13:28:33.383Z,101437.44
2024-02-13T13:31:54.990Z,101437.25
2024-02-13T13:35:21.308Z,101441.13
2024-02-13T13:38:44.429Z,101442.25
2024-02-13T13:42:10.861Z,101431.84
2024-02-13T13:45:32.514Z,101432.31
2024-02-13T13:48:54.044Z,101442.25
2024-02-13T13:52:15.865Z,101436.09
2024-02-13T13:55:37.479Z,101435.44
2024-02-13T13:59:00.521Z,101445.84
2024-02-13T14:02:22.002Z,101439.72
2024-02-13T14:05:45.292Z,101440.16
2024-02-13T14:09:08.991Z,101438.38
2024-02-13T14:12:30.961Z,101440.06
2024-02-13T14:15:53.799Z,101444.31
2024-02-13T14:19:15.351Z,101448.81
2024-02-13T14:22:38.408Z,101448.53
2024-02-13T14:25:59.928Z,101449.91
2024-02-13T14:29:21.309Z,101444.53
2024-02-13T14:32:45.054Z,101458.34
2024-02-13T14:36:07.049Z,101449.06
2024-02-13T14:39:29.225Z,101451.53
2024-02-13T14:42:51.119Z,101457.31
2024-02-13T14:46:12.941Z,101456.84
2024-02-13T14:49:36.047Z,101458.34
2024-02-13T14:52:57.805Z,101452.38
2024-02-13T14:56:20.427Z,101461.19
2024-02-13T14:59:41.978Z,101457.88
2024-02-13T15:03:03.739Z,101464.53
2024-02-13T15:06:26.308Z,101469.63
2024-02-13T15:09:49.443Z,101460.34
2024-02-13T15:13:12.808Z,101473.97
2024-02-13T15:16:34.386Z,101467.56
2024-02-13T15:19:56.708Z,101469.72
2024-02-13T15:23:20.271Z,101466.50
2024-02-13T15:26:41.718Z,101467.44
2024-02-13T15:30:05.940Z,101470.28
2024-02-13T15:33:27.399Z,101480.06
2024-02-13T15:37:02.590Z,101474.09
2024-02-13T15:40:43.195Z,101475.22
2024-02-13T15:44:22.128Z,101481.47
2024-02-13T15:47:44.294Z,101487.63
2024-02-13T15:51:07.383Z,101482.97
2024-02-13T15:54:31.914Z,101488.69
2024-02-13T15:57:54.562Z,101494.53
2024-02-13T16:01:18.474Z,101492.84
2024-02-13T16:04:40.492Z,101502.13
2024-02-13T16:08:02.194Z,101507.13
2024-02-13T16:11:23.625Z,101512.53
2024-02-13T16:14:47.827Z,101513.66
2024-02-13T16:18:10.072Z,101514.63
2024-02-13T16:21:31.896Z,101514.78
2024-02-13T16:24:54.817Z,101514.97
2024-02-13T16:28:16.640Z,101520.06
2024-02-13T16:31:39.683Z,101512.59
2024-02-13T16:35:01.065Z,101525.84
2024-02-13T16:38:22.696Z,101534.81
2024-02-13T16:41:45.495Z,101531.84
2024-02-13T16:45:08.241Z,101534.63
2024-02-13T16:48:31.115Z,101534.03
2024-02-13T16:51:53.247Z,101546.72
2024-02-13T16:55:16.002Z,101545.50
2024-02-13T16:58:38.043Z,101547.56
2024-02-13T17:01:59.589Z,101560.22
2024-02-13T17:05:23.600Z,101561.72
2024-02-13T17:08:47.423Z,101568.78
2024-02-13T17:12:09.532Z,101575.13
2024-02-13T17:15:31.307Z,101577.66
2024-02-13T17:18:52.665Z,101583.84
2024-02-13T17:22:15.883Z,101591.00
2024-02-13T17:25:37.636Z,101582.91
2024-02-13T17:29:00.239Z,101582.31
2024-02-13T17:32:23.191Z,101583.25
2024-02-13T17:35:44.874Z,101595.88
2024-02-13T17:39:10.835Z,101592.44
2024-02-13T17:42:34.118Z,101599.72
2024-02-13T17:45:55.880Z,101597.22
2024-02-13T17:49:18.024Z,101596.53
2024-02-13T17:52:39.985Z,101595.16
2024-02-13T17:56:03.128Z,101602.56
2024-02-13T17:59:25.329Z,101601.97
2024-02-13T18:02:46.683Z,101607.41
2024-02-13T18:06:08.771Z,101597.16
2024-02-13T18:09:30.083Z,101590.50
2024-02-13T18:12:53.087Z,101601.25
2024-02-13T18:16:14.414Z,101596.03
2024-02-13T18:19:35.739Z,101596.13
2024-02-13T18:22:58.234Z,101595.03
2024-02-13T18:26:22.984Z,101595.09
2024-02-13T18:29:46.479Z,101597.66
2024-02-13T18:33:09.148Z,101593.47
2024-02-13T18:36:33.504Z,101595.34
2024-02-13T18:39:54.788Z,101604.34
2024-02-13T18:43:16.227Z,101601.50
2024-02-13T18:46:43.130Z,101603.72
2024-02-13T18:50:05.519Z,101607.53
2024-02-13T18:53:31.502Z,101616.81
2024-02-13T18:56:54.132Z,101614.38
2024-02-13T19:00:17.341Z,101612.13
2024-02-13T19:03:40.318Z,101617.41
2024-02-13T19:07:01.875Z,101606.50
2024-02-13T19:10:23.476Z,101607.06
2024-02-13T19:13:45.375Z,101608.66
2024-02-13T19:17:07.443Z,101613.44
2024-02-13T19:20:30.387Z,101618.88
2024-02-13T19:23:51.938Z,101616.50
2024-02-13T19:27:13.866Z,101619.50
2024-02-13T19:30:36.373Z,101621.22
2024-02-13T19:33:57.884Z,101619.44
2024-02-13T19:37:21.047Z,101622.63
2024-02-13T19:40:43.161Z,101615.56
2024-02-13T19:44:04.979Z,101627.59
2024-02-13T19:47:26.520Z,101628.28
2024-02-13T19:50:48.470Z,101617.50
2024-02-13T19:54:11.893Z,101634.34
2024-02-13T19:57:33.820Z,101634.84
2024-02-13T20:00:56.120Z,101635.00
2024-02-13T20:04:18.264Z,101633.34
2024-02-13T20:07:39.923Z,101633.28
2024-02-13T20:11:04.907Z,101636.53
2024-02-13T20:14:26.816Z,101639.13
2024-02-13T20:17:48.658Z,101627.66
2024-02-13T20:21:11.396Z,101630.56
2024-02-13T20:24:33.892Z,101640.41
2024-02-13T20:27:58.392Z,101638.09
2024-02-13T20:31:20.471Z,101635.66
2024-02-13T20:34:42.932Z,101642.28
2024-02-13T20:38:05.392Z,101643.63
2024-02-13T20:41:26.582Z,101641.38
2024-02-13T20:44:51.537Z,101642.66
2024-02-13T20:48:13.188Z,101647.50
2024-02-13T20:51:36.593Z,101655.09
2024-02-13T20:54:58.268Z,101656.34
2024-02-13T20:58:19.711Z,101662.84
2024-02-13T21:01:43.485Z,101658.84
2024-02-13T21:05:06.161Z,101661.03
2024-02-13T21:08:27.652Z,101664.72
2024-02-13T21:11:49.587Z,101659.72
2024-02-13T21:15:13.727Z,101657.44
2024-02-13T21:18:36.775Z,101657.78
2024-02-13T21:22:15.693Z,101658.09
2024-02-13T21:25:37.253Z,101658.09
2024-02-13T21:28:59.589Z,101656.59
2024-02-13T21:32:22.317Z,101651.53
2024-02-13T21:35:45.186Z,101644.09
2024-02-13T21:39:09.068Z,101649.53
2024-02-13T21:42:31.266Z,101654.72
2024-02-13T21:45:53.169Z,101646.09
2024-02-13T21:49:14.690Z,101650.91
2024-02-13T21:52:37.782Z,101649.50
2024-02-13T21:55:59.058Z,101644.22
2024-02-13T21:59:21.055Z,101648.66
2024-02-13T22:02:42.757Z,101641.66
2024-02-13T22:06:04.427Z,101643.50
2024-02-13T22:09:28.052Z,101641.84
2024-02-13T22:12:49.575Z,101656.19
2024-02-13T22:16:10.938Z,101652.09
2024-02-13T22:19:32.327Z,101647.66
2024-02-13T22:22:53.880Z,101652.22
2024-02-13T22:26:16.388Z,101659.72
2024-02-13T22:29:37.716Z,101659.78
2024-02-13T22:33:00.716Z,101664.47
2024-02-13T22:36:23.961Z,101656.75
2024-02-13T22:39:45.516Z,101665.69
2024-02-13T22:43:08.399Z,101661.47
2024-02-13T22:46:29.589Z,101663.47
2024-02-13T22:49:50.972Z,101662.09
2024-02-13T22:53:12.258Z,101662.44
2024-02-13T22:56:33.589Z,101660.09
2024-02-13T22:59:58.478Z,101663.03
2024-02-13T23:03:20.534Z,101671.91
2024-02-13T23:06:42.939Z,101674.50
2024-02-13T23:10:05.173Z,101672.66
2024-02-13T23:13:32.414Z,101666.53
2024-02-13T23:17:00.089Z,101667.41
2024-02-13T23:20:22.388Z,101667.44
2024-02-13T23:23:43.728Z,101665.72
2024-02-13T23:27:05.290Z,101668.47
2024-02-13T23:30:28.229Z,101662.38
2024-02-13T23:33:51.268Z,101669.47
2024-02-13T23:37:12.953Z,101667.88
2024-02-13T23:40:34.437Z,101670.53
2024-02-13T23:43:55.753Z,101666.25
2024-02-13T23:47:17.807Z,101669.81
2024-02-13T23:50:40.647Z,101668.94
2024-02-13T23:54:01.941Z,101662.72
2024-02-13T23:57:23.546Z,101668.78
